createdAt,value
2022-12-23T00:01:25.670Z,98884.91
2022-12-23T00:03:54.006Z,98878.22
2022-12-23T00:06:23.595Z,98875.28
2022-12-23T00:08:58.428Z,98880.91
2022-12-23T00:11:27.859Z,98883.59
2022-12-23T00:14:20.128Z,98883.59
2022-12-23T00:16:51.543Z,98879.06
2022-12-23T00:19:19.691Z,98880.38
2022-12-23T00:21:48.481Z,98878.00
2022-12-23T00:24:16.591Z,98880.38
2022-12-23T00:26:44.480Z,98876.13
2022-12-23T00:29:12.446Z,98872.13
2022-12-23T00:31:40.433Z,98872.69
2022-12-23T00:34:11.897Z,98872.41
2022-12-23T00:36:41.106Z,98880.94
2022-12-23T00:39:30.355Z,98871.88
2022-12-23T00:42:15.642Z,98874.78
2022-12-23T00:44:43.667Z,98878.00
2022-12-23T00:47:32.136Z,98871.56
2022-12-23T00:50:00.558Z,98874.47
2022-12-23T00:52:28.481Z,98869.13
2022-12-23T00:54:56.419Z,98865.97
2022-12-23T00:57:24.283Z,98864.34
2022-12-23T00:59:52.289Z,98871.56
2022-12-23T01:02:37.735Z,98867.03
2022-12-23T01:08:19.103Z,98867.56
2022-12-23T01:10:47.078Z,98856.31
2022-12-23T01:13:14.964Z,98862.69
2022-12-23T01:15:42.931Z,98864.31
2022-12-23T01:18:10.871Z,98853.09
2022-12-23T01:20:39.159Z,98852.28
2022-12-23T01:23:07.664Z,98856.78
2022-12-23T01:25:37.012Z,98850.41
2022-12-23T01:28:05.145Z,98857.63
2022-12-23T01:30:33.110Z,98850.66
2022-12-23T01:33:01.099Z,98852.53
2022-12-23T01:35:29.086Z,98853.63
2022-12-23T01:37:57.077Z,98838.41
2022-12-23T01:40:25.019Z,98849.41
2022-12-23T01:42:53.353Z,98850.50
2022-12-23T01:45:25.878Z,98839.59
2022-12-23T01:47:58.514Z,98836.41
2022-12-23T01:50:30.898Z,98837.75
2022-12-23T01:53:07.204Z,98837.25
2022-12-23T01:55:41.280Z,98838.59
2022-12-23T01:58:14.738Z,98833.28
2022-12-23T02:01:01.145Z,98837.81
2022-12-23T02:03:44.794Z,98838.06
2022-12-23T02:06:38.025Z,98835.16
2022-12-23T02:09:19.447Z,98841.56
2022-12-23T02:12:29.798Z,98833.28
2022-12-23T02:15:32.922Z,98834.38
2022-12-23T02:18:13.778Z,98834.13
2022-12-23T02:21:10.923Z,98830.38
2022-12-23T02:24:03.610Z,98834.13
2022-12-23T02:27:05.953Z,98840.00
2022-12-23T02:30:09.226Z,98834.16
2022-12-23T02:33:01.134Z,98830.44
2022-12-23T02:35:34.672Z,98830.97
2022-12-23T02:38:10.368Z,98825.91
2022-12-23T02:40:45.458Z,98831.25
2022-12-23T02:43:19.999Z,98836.81
2022-12-23T02:45:55.831Z,98835.78
2022-12-23T02:48:31.509Z,98826.19
2022-12-23T02:51:01.556Z,98827.78
2022-12-23T02:53:35.012Z,98831.78
2022-12-23T02:56:04.991Z,98829.91
2022-12-23T02:58:38.471Z,98832.03
2022-12-23T03:01:08.028Z,98831.75
2022-12-23T03:03:39.050Z,98833.38
2022-12-23T03:06:18.934Z,98826.16
2022-12-23T03:08:47.623Z,98820.28
2022-12-23T03:11:17.860Z,98818.69
2022-12-23T03:14:11.193Z,98811.22
2022-12-23T03:16:53.056Z,98815.47
2022-12-23T03:19:30.172Z,98813.59
2022-12-23T03:22:07.115Z,98818.94
2022-12-23T03:24:41.598Z,98832.75
2022-12-23T03:27:16.289Z,98828.22
2022-12-23T03:29:49.887Z,98833.00
2022-12-23T03:32:20.496Z,98825.53
2022-12-23T03:34:53.473Z,98834.84
2022-12-23T03:37:24.673Z,98828.47
2022-12-23T03:39:58.750Z,98823.13
2022-12-23T03:42:32.905Z,98828.22
2022-12-23T03:47:59.086Z,98825.28
2022-12-23T03:50:30.255Z,98824.47
2022-12-23T03:53:02.528Z,98811.44
2022-12-23T03:55:35.662Z,98822.34
2022-12-23T03:58:11.615Z,98819.16
2022-12-23T04:00:45.857Z,98828.97
2022-12-23T04:03:23.152Z,98821.78
2022-12-23T04:05:55.819Z,98823.66
2022-12-23T04:08:28.499Z,98828.16
2022-12-23T04:10:56.696Z,98822.03
2022-12-23T04:13:24.677Z,98825.50
2022-12-23T04:15:52.838Z,98836.16
2022-12-23T04:18:20.857Z,98826.56
2022-12-23T04:20:48.865Z,98827.66
2022-12-23T04:23:18.314Z,98831.91
2022-12-23T04:25:46.276Z,98824.97
2022-12-23T04:28:14.197Z,98821.25
2022-12-23T04:30:42.202Z,98821.78
2022-12-23T04:33:12.041Z,98816.19
2022-12-23T04:35:40.306Z,98814.34
2022-12-23T04:38:08.973Z,98810.06
2022-12-23T04:40:38.421Z,98809.81
2022-12-23T04:43:06.331Z,98807.41
2022-12-23T04:45:34.326Z,98806.34
2022-12-23T04:48:02.292Z,98802.06
2022-12-23T04:50:30.174Z,98810.53
2022-12-23T04:52:58.217Z,98819.81
2022-12-23T04:55:26.190Z,98809.44
2022-12-23T04:57:55.462Z,98815.28
2022-12-23T05:00:23.485Z,98808.66
2022-12-23T05:02:51.529Z,98816.66
2022-12-23T05:05:19.574Z,98820.66
2022-12-23T05:07:50.761Z,98827.06
2022-12-23T05:10:18.930Z,98826.56
2022-12-23T05:12:46.897Z,98840.69
2022-12-23T05:15:16.252Z,98837.25
2022-12-23T05:17:44.205Z,98839.91
2022-12-23T05:20:12.553Z,98838.28
2022-12-23T05:22:40.605Z,98835.63
2022-12-23T05:25:09.785Z,98837.75
2022-12-23T05:27:37.762Z,98837.47
2022-12-23T05:30:06.784Z,98838.28
2022-12-23T05:32:36.202Z,98842.59
2022-12-23T05:35:04.227Z,98840.47
2022-12-23T05:37:32.154Z,98854.59
2022-12-23T05:40:00.124Z,98852.19
2022-12-23T05:42:28.393Z,98854.06
2022-12-23T05:44:56.313Z,98846.59
2022-12-23T05:47:24.244Z,98847.91
2022-12-23T05:49:53.617Z,98853.25
2022-12-23T05:52:21.659Z,98855.34
2022-12-23T05:54:49.616Z,98863.31
2022-12-23T05:57:17.641Z,98874.47
2022-12-23T05:59:45.570Z,98871.28
2022-12-23T06:02:13.766Z,98862.75
2022-12-23T06:04:41.823Z,98865.34
2022-12-23T06:07:11.228Z,98868.25
2022-12-23T06:09:39.195Z,98866.63
2022-12-23T06:12:07.545Z,98870.63
2022-12-23T06:14:35.559Z,98869.53
2022-12-23T06:17:03.527Z,98874.31
2022-12-23T06:19:31.512Z,98866.03
2022-12-23T06:21:59.518Z,98866.31
2022-12-23T06:24:28.870Z,98874.53
2022-12-23T06:26:57.525Z,98878.50
2022-12-23T06:29:25.748Z,98881.19
2022-12-23T06:31:53.893Z,98872.13
2022-12-23T06:34:21.957Z,98875.34
2022-12-23T06:36:50.066Z,98873.47
2022-12-23T06:39:17.978Z,98877.47
2022-12-23T06:41:47.570Z,98864.72
2022-12-23T06:44:15.804Z,98870.09
2022-12-23T06:46:43.801Z,98871.44
2022-12-23T06:49:13.752Z,98865.56
2022-12-23T06:51:42.281Z,98873.53
2022-12-23T06:54:12.388Z,98869.28
2022-12-23T06:56:40.508Z,98880.75
2022-12-23T06:59:09.882Z,98878.63
2022-12-23T07:01:37.961Z,98878.66
2022-12-23T07:04:06.244Z,98882.41
2022-12-23T07:06:34.182Z,98877.09
2022-12-23T07:09:02.243Z,98875.00
2022-12-23T07:11:30.159Z,98884.88
2022-12-23T07:13:59.521Z,98892.38
2022-12-23T07:16:28.959Z,98885.75
2022-12-23T07:18:57.040Z,98884.72
2022-12-23T07:21:29.385Z,98893.56
2022-12-23T07:23:57.954Z,98898.13
2022-12-23T07:26:25.890Z,98905.88
2022-12-23T07:28:53.860Z,98893.34
2022-12-23T07:31:21.845Z,98893.63
2022-12-23T07:33:51.255Z,98900.81
2022-12-23T07:36:19.128Z,98893.34
2022-12-23T07:38:50.593Z,98894.41
2022-12-23T07:41:18.875Z,98895.97
2022-12-23T07:43:46.937Z,98891.41
2022-12-23T07:46:15.116Z,98894.34
2022-12-23T07:48:43.271Z,98883.34
2022-12-23T07:51:12.774Z,98884.13
2022-12-23T07:53:40.799Z,98898.00
2022-12-23T07:56:09.449Z,98898.00
2022-12-23T07:58:37.454Z,98901.47
2022-12-23T08:01:08.096Z,98889.69
2022-12-23T08:03:37.021Z,98904.31
2022-12-23T08:06:07.358Z,98902.16
2022-12-23T08:08:37.169Z,98901.59
2022-12-23T08:11:07.053Z,98896.22
2022-12-23T08:13:36.439Z,98909.03
2022-12-23T08:16:06.406Z,98912.72
2022-12-23T08:18:35.768Z,98909.25
2022-12-23T08:21:06.317Z,98927.09
2022-12-23T08:23:36.377Z,98920.44
2022-12-23T08:26:06.402Z,98912.94
2022-12-23T08:28:35.508Z,98907.53
2022-12-23T08:31:06.961Z,98915.75
2022-12-23T08:33:36.391Z,98911.63
2022-12-23T08:36:05.240Z,98907.53
2022-12-23T08:38:33.567Z,98911.72
2022-12-23T08:41:03.378Z,98917.50
2022-12-23T08:43:35.784Z,98915.53
2022-12-23T08:46:04.324Z,98909.06
2022-12-23T08:48:32.824Z,98904.97
2022-12-23T08:51:04.283Z,98898.50
2022-12-23T08:53:32.320Z,98903.72
2022-12-23T08:56:05.128Z,98899.41
2022-12-23T08:58:33.296Z,98898.53
2022-12-23T09:01:05.003Z,98900.66
2022-12-23T09:03:33.666Z,98896.84
2022-12-23T09:06:05.864Z,98899.69
2022-12-23T09:08:34.053Z,98902.31
2022-12-23T09:11:03.597Z,98904.13
2022-12-23T09:13:35.683Z,98891.81
2022-12-23T09:16:04.173Z,98897.06
2022-12-23T09:18:32.417Z,98894.63
2022-12-23T09:21:01.282Z,98892.97
2022-12-23T09:23:29.647Z,98897.75
2022-12-23T09:25:57.740Z,98884.88
2022-12-23T09:28:27.647Z,98878.41
2022-12-23T09:30:55.668Z,98890.75
2022-12-23T09:33:24.011Z,98885.38
2022-12-23T09:35:51.943Z,98882.69
2022-12-23T09:38:19.809Z,98889.38
2022-12-23T09:40:47.738Z,98887.53
2022-12-23T09:43:27.362Z,98898.63
2022-12-23T09:46:07.430Z,98887.66
2022-12-23T09:48:42.724Z,98893.59
2022-12-23T09:51:12.360Z,98889.41
2022-12-23T09:53:50.655Z,98901.97
2022-12-23T09:56:26.385Z,98884.81
2022-12-23T09:59:04.990Z,98884.78
2022-12-23T10:01:44.629Z,98882.53
2022-12-23T10:04:38.971Z,98882.97
2022-12-23T10:07:19.460Z,98876.13
2022-12-23T10:09:50.415Z,98879.38
2022-12-23T10:12:28.818Z,98872.97
2022-12-23T10:15:02.602Z,98871.72
2022-12-23T10:17:36.287Z,98870.19
2022-12-23T10:20:11.288Z,98864.56
2022-12-23T10:22:42.601Z,98864.69
2022-12-23T10:25:16.083Z,98860.94
2022-12-23T10:27:45.077Z,98868.78
2022-12-23T10:30:42.427Z,98866.72
2022-12-23T10:33:13.122Z,98867.97
2022-12-23T10:35:50.130Z,98865.16
2022-12-23T10:38:32.547Z,98862.78
2022-12-23T10:41:09.528Z,98857.19
2022-12-23T10:43:48.448Z,98855.41
2022-12-23T10:46:23.766Z,98847.25
2022-12-23T10:49:01.049Z,98849.31
2022-12-23T10:51:34.079Z,98850.78
2022-12-23T10:54:06.596Z,98845.63
2022-12-23T10:56:35.031Z,98850.81
2022-12-23T10:59:03.157Z,98852.81
2022-12-23T11:01:32.423Z,98857.19
2022-12-23T11:04:10.166Z,98850.66
2022-12-23T11:06:40.715Z,98849.25
2022-12-23T11:09:16.226Z,98852.72
2022-12-23T11:11:53.848Z,98849.53
2022-12-23T11:14:32.081Z,98846.66
2022-12-23T11:17:00.108Z,98844.88
2022-12-23T11:19:29.708Z,98845.88
2022-12-23T11:21:59.778Z,98840.31
2022-12-23T11:24:35.420Z,98843.28
2022-12-23T11:27:07.413Z,98826.97
2022-12-23T11:29:38.601Z,98837.41
2022-12-23T11:32:19.748Z,98836.63
2022-12-23T11:34:50.195Z,98834.13
2022-12-23T11:37:36.704Z,98833.31
2022-12-23T11:40:06.428Z,98828.97
2022-12-23T11:42:36.007Z,98835.59
2022-12-23T11:45:08.555Z,98838.88
2022-12-23T11:47:41.066Z,98826.56
2022-12-23T11:50:29.002Z,98819.91
2022-12-23T11:53:04.991Z,98833.50
2022-12-23T11:55:33.952Z,98834.13
2022-12-23T11:58:03.889Z,98818.41
2022-12-23T12:00:40.212Z,98825.59
2022-12-23T12:03:15.415Z,98825.78
2022-12-23T12:05:50.993Z,98824.19
2022-12-23T12:08:23.675Z,98830.53
2022-12-23T12:10:53.941Z,98826.97
2022-12-23T12:13:27.740Z,98826.38
2022-12-23T12:16:10.754Z,98827.75
2022-12-23T12:18:40.994Z,98829.34
2022-12-23T12:21:16.186Z,98834.13
2022-12-23T12:23:48.775Z,98830.53
2022-12-23T12:26:25.019Z,98826.75
2022-12-23T12:28:58.307Z,98834.00
2022-12-23T12:31:31.603Z,98829.66
2022-12-23T12:34:05.245Z,98832.13
2022-12-23T12:36:42.983Z,98832.91
2022-12-23T12:39:19.241Z,98830.72
2022-12-23T12:41:52.615Z,98827.94
2022-12-23T12:44:31.252Z,98830.53
2022-12-23T12:47:28.091Z,98828.34
2022-12-23T12:49:58.319Z,98843.06
2022-12-23T12:52:29.311Z,98840.88
2022-12-23T12:55:03.164Z,98841.66
2022-12-23T12:57:33.419Z,98845.97
2022-12-23T13:00:06.531Z,98843.28
2022-12-23T13:03:05.654Z,98835.22
2022-12-23T13:05:51.676Z,98831.91
2022-12-23T13:08:33.893Z,98821.16
2022-12-23T13:11:10.997Z,98825.44
2022-12-23T13:13:46.552Z,98827.34
2022-12-23T13:16:25.351Z,98816.56
2022-12-23T13:18:59.501Z,98821.34
2022-12-23T13:21:33.980Z,98808.22
2022-12-23T13:24:16.126Z,98804.25
2022-12-23T13:26:56.246Z,98808.81
2022-12-23T13:30:05.799Z,98825.06
2022-12-23T13:32:50.810Z,98818.50
2022-12-23T13:35:33.701Z,98818.59
2022-12-23T13:38:19.962Z,98819.19
2022-12-23T13:40:58.698Z,98817.28
2022-12-23T13:43:30.880Z,98809.25
2022-12-23T13:46:01.707Z,98809.84
2022-12-23T13:48:40.286Z,98819.00
2022-12-23T13:51:15.333Z,98823.59
2022-12-23T13:53:49.436Z,98815.53
2022-12-23T13:56:28.201Z,98815.31
2022-12-23T13:58:57.298Z,98814.00
2022-12-23T14:01:37.742Z,98816.50
2022-12-23T14:04:32.223Z,98812.84
2022-12-23T14:07:02.045Z,98815.63
2022-12-23T14:09:34.056Z,98817.41
2022-12-23T14:12:21.073Z,98817.78
2022-12-23T14:15:16.440Z,98814.91
2022-12-23T14:17:51.886Z,98817.00
2022-12-23T14:20:32.703Z,98810.94
2022-12-23T14:23:15.344Z,98812.91
2022-12-23T14:25:56.400Z,98813.50
2022-12-23T14:28:38.466Z,98809.34
2022-12-23T14:31:06.660Z,98815.88
2022-12-23T14:33:37.827Z,98813.88
2022-12-23T14:36:23.377Z,98823.13
2022-12-23T14:39:24.347Z,98816.13
2022-12-23T14:41:56.522Z,98816.66
2022-12-23T14:44:51.718Z,98825.50
2022-12-23T14:47:35.382Z,98823.31
2022-12-23T14:50:37.941Z,98828.38
2022-12-23T14:53:20.434Z,98834.25
2022-12-23T14:55:50.078Z,98833.75
2022-12-23T14:58:55.457Z,98828.97
2022-12-23T15:01:31.460Z,98822.53
2022-12-23T15:04:01.806Z,98820.72
2022-12-23T15:06:36.487Z,98823.72
2022-12-23T15:09:07.441Z,98820.00
2022-12-23T15:11:37.530Z,98817.50
2022-12-23T15:14:13.564Z,98816.56
2022-12-23T15:16:45.235Z,98829.34
2022-12-23T15:19:25.901Z,98829.31
2022-12-23T15:22:17.961Z,98830.03
2022-12-23T15:24:50.689Z,98833.94
2022-12-23T15:27:29.352Z,98827.19
2022-12-23T15:29:59.283Z,98831.63
2022-12-23T15:32:30.660Z,98833.63
2022-12-23T15:35:05.150Z,98823.84
2022-12-23T15:37:36.820Z,98825.06
2022-12-23T15:40:13.436Z,98822.47
2022-12-23T15:42:50.747Z,98820.78
2022-12-23T15:45:43.568Z,98810.25
2022-12-23T15:48:26.599Z,98810.59
2022-12-23T15:50:58.387Z,98801.38
2022-12-23T15:53:32.400Z,98806.34
2022-12-23T15:56:05.024Z,98811.75
2022-12-23T15:58:35.092Z,98815.34
2022-12-23T16:01:03.324Z,98813.78
2022-12-23T16:03:35.230Z,98813.25
2022-12-23T16:06:11.537Z,98820.47
2022-12-23T16:08:40.444Z,98824.50
2022-12-23T16:11:16.035Z,98814.41
2022-12-23T16:13:58.671Z,98816.56
2022-12-23T16:16:38.198Z,98825.16
2022-12-23T16:19:27.995Z,98817.47
2022-12-23T16:21:55.989Z,98823.13
2022-12-23T16:24:24.042Z,98823.41
2022-12-23T16:26:52.140Z,98813.84
2022-12-23T16:29:20.830Z,98816.03
2022-12-23T16:31:54.426Z,98806.19
2022-12-23T16:34:31.864Z,98807.59
2022-12-23T16:36:59.824Z,98804.69
2022-12-23T16:39:28.011Z,98809.25
2022-12-23T16:41:55.978Z,98819.94
2022-12-23T16:44:26.446Z,98818.66
2022-12-23T16:46:54.391Z,98818.91
2022-12-23T16:49:29.494Z,98808.00
2022-12-23T16:52:00.979Z,98812.53
2022-12-23T16:54:29.101Z,98812.53
2022-12-23T16:56:57.225Z,98806.09
2022-12-23T16:59:26.060Z,98797.31
2022-12-23T17:01:58.182Z,98795.75
2022-12-23T17:04:31.002Z,98796.28
2022-12-23T17:07:00.435Z,98790.41
2022-12-23T17:09:28.439Z,98786.41
2022-12-23T17:11:56.661Z,98795.78
2022-12-23T17:14:26.064Z,98786.16
2022-12-23T17:16:54.239Z,98779.78
2022-12-23T17:19:28.613Z,98769.66
2022-12-23T17:22:02.816Z,98774.19
2022-12-23T17:24:30.871Z,98777.66
2022-12-23T17:26:59.219Z,98773.13
2022-12-23T17:29:28.241Z,98786.72
2022-12-23T17:31:56.459Z,98784.59
2022-12-23T17:34:25.692Z,98773.66
2022-12-23T17:36:53.836Z,98771.00
2022-12-23T17:39:23.765Z,98760.09
2022-12-23T17:41:52.021Z,98766.47
2022-12-23T17:44:20.128Z,98753.69
2022-12-23T17:46:48.391Z,98745.16
2022-12-23T17:49:16.306Z,98747.28
2022-12-23T17:51:44.532Z,98748.63
2022-12-23T17:54:22.608Z,98751.81
2022-12-23T17:56:52.856Z,98759.00
2022-12-23T17:59:21.691Z,98757.97
2022-12-23T18:01:50.460Z,98756.38
2022-12-23T18:04:18.644Z,98767.03
2022-12-23T18:06:48.762Z,98760.88
2022-12-23T18:09:16.923Z,98763.81
2022-12-23T18:11:46.393Z,98765.94
2022-12-23T18:14:19.240Z,98767.03
2022-12-23T18:16:47.784Z,98764.06
2022-12-23T18:19:19.102Z,98765.94
2022-12-23T18:21:47.399Z,98756.09
2022-12-23T18:24:15.795Z,98771.00
2022-12-23T18:26:44.092Z,98775.78
2022-12-23T18:29:12.120Z,98770.19
2022-12-23T18:31:51.528Z,98777.09
2022-12-23T18:34:20.709Z,98779.78
2022-12-23T18:36:51.537Z,98776.31
2022-12-23T18:39:20.138Z,98773.09
2022-12-23T18:41:48.148Z,98770.69
2022-12-23T18:44:19.015Z,98766.72
2022-12-23T18:46:49.152Z,98774.16
2022-12-23T18:49:20.067Z,98773.38
2022-12-23T18:51:48.746Z,98766.97
2022-12-23T18:54:19.629Z,98766.97
2022-12-23T18:56:49.293Z,98772.28
2022-12-23T18:59:29.622Z,98775.19
2022-12-23T19:02:05.240Z,98780.47
2022-12-23T19:04:35.436Z,98784.97
2022-12-23T19:07:05.795Z,98787.06
2022-12-23T19:09:33.820Z,98783.59
2022-12-23T19:12:01.836Z,98772.91
2022-12-23T19:14:29.760Z,98771.56
2022-12-23T19:17:01.042Z,98774.50
2022-12-23T19:19:28.952Z,98775.31
2022-12-23T19:21:56.871Z,98780.38
2022-12-23T19:24:25.064Z,98775.06
2022-12-23T19:26:53.005Z,98774.78
2022-12-23T19:29:20.878Z,98767.91
2022-12-23T19:31:48.835Z,98765.75
2022-12-23T19:34:18.190Z,98776.44
2022-12-23T19:36:46.218Z,98772.19
2022-12-23T19:39:16.669Z,98768.19
2022-12-23T19:41:45.333Z,98769.56
2022-12-23T19:44:13.331Z,98767.97
2022-12-23T19:46:41.518Z,98762.69
2022-12-23T19:49:14.036Z,98762.72
2022-12-23T19:51:47.154Z,98764.34
2022-12-23T19:54:15.240Z,98764.34
2022-12-23T19:56:43.234Z,98764.63
2022-12-23T19:59:11.266Z,98758.22
2022-12-23T20:01:39.421Z,98750.50
2022-12-23T20:04:07.490Z,98751.28
2022-12-23T20:06:38.367Z,98757.41
2022-12-23T20:09:08.791Z,98745.94
2022-12-23T20:11:38.951Z,98747.00
2022-12-23T20:14:07.911Z,98742.47
2022-12-23T20:16:37.496Z,98748.59
2022-12-23T20:19:05.926Z,98745.69
2022-12-23T20:21:34.093Z,98744.09
2022-12-23T20:24:02.494Z,98748.34
2022-12-23T20:26:31.846Z,98754.75
2022-12-23T20:29:00.018Z,98756.09
2022-12-23T20:31:30.080Z,98758.50
2022-12-23T20:33:59.455Z,98752.63
2022-12-23T20:36:29.673Z,98757.94
2022-12-23T20:38:57.938Z,98763.78
2022-12-23T20:41:29.671Z,98757.94
2022-12-23T20:46:48.124Z,98764.03
2022-12-23T20:49:16.320Z,98762.16
2022-12-23T20:51:44.261Z,98767.97
2022-12-23T20:54:12.767Z,98767.66
2022-12-23T20:56:43.542Z,98774.31
2022-12-23T20:59:13.160Z,98776.94
2022-12-23T21:01:42.076Z,98770.53
2022-12-23T21:04:12.833Z,98765.97
2022-12-23T21:06:41.075Z,98769.69
2022-12-23T21:09:11.716Z,98767.53
2022-12-23T21:11:43.154Z,98773.63
2022-12-23T21:14:13.820Z,98778.66
2022-12-23T21:16:42.072Z,98786.34
2022-12-23T21:19:14.871Z,98786.34
2022-12-23T21:21:42.795Z,98782.06
2022-12-23T21:24:11.080Z,98780.16
2022-12-23T21:26:39.693Z,98784.66
2022-12-23T21:29:09.465Z,98770.72
2022-12-23T21:31:42.139Z,98769.69
2022-12-23T21:34:14.302Z,98765.91
2022-12-23T21:36:43.732Z,98767.25
2022-12-23T21:39:14.701Z,98767.25
2022-12-23T21:41:43.131Z,98770.16
2022-12-23T21:44:13.647Z,98754.91
2022-12-23T21:46:43.209Z,98762.66
2022-12-23T21:49:11.991Z,98763.72
2022-12-23T21:51:41.525Z,98761.03
2022-12-23T21:54:11.647Z,98761.34
2022-12-23T21:56:41.389Z,98756.78
2022-12-23T21:59:12.924Z,98761.03
2022-12-23T22:01:43.048Z,98753.59
2022-12-23T22:04:11.136Z,98753.34
2022-12-23T22:06:43.541Z,98750.97
2022-12-23T22:09:13.248Z,98755.56
2022-12-23T22:11:41.244Z,98744.66
2022-12-23T22:14:11.695Z,98757.25
2022-12-23T22:16:39.741Z,98757.53
2022-12-23T22:19:09.618Z,98761.06
2022-12-23T22:21:39.573Z,98758.66
2022-12-23T22:24:08.417Z,98758.13
2022-12-23T22:26:37.269Z,98764.56
2022-12-23T22:29:07.248Z,98759.75
2022-12-23T22:31:39.898Z,98742.38
2022-12-23T22:34:13.661Z,98757.84
2022-12-23T22:36:41.678Z,98757.81
2022-12-23T22:39:11.893Z,98750.06
2022-12-23T22:41:43.881Z,98749.47
2022-12-23T22:44:13.835Z,98751.81
2022-12-23T22:46:41.913Z,98746.19
2022-12-23T22:49:13.083Z,98751.81
2022-12-23T22:51:41.995Z,98754.78
2022-12-23T22:54:10.456Z,98749.69
2022-12-23T22:56:38.555Z,98755.34
2022-12-23T22:59:06.868Z,98756.44
2022-12-23T23:01:36.576Z,98756.22
2022-12-23T23:04:05.415Z,98750.38
2022-12-23T23:06:38.085Z,98751.41
2022-12-23T23:09:08.972Z,98744.16
2022-12-23T23:11:37.219Z,98748.13
2022-12-23T23:14:05.715Z,98751.56
2022-12-23T23:16:34.630Z,98761.41
2022-12-23T23:19:03.133Z,98745.06
2022-12-23T23:21:31.319Z,98738.63
2022-12-23T23:24:00.603Z,98735.91
2022-12-23T23:26:28.571Z,98736.66
2022-12-23T23:28:57.686Z,98733.69
2022-12-23T23:31:43.242Z,98731.25
2022-12-23T23:34:12.245Z,98723.53
2022-12-23T23:36:40.507Z,98727.28
2022-12-23T23:39:11.991Z,98718.78
2022-12-23T23:41:41.077Z,98712.16
2022-12-23T23:44:09.083Z,98707.09
2022-12-23T23:46:37.123Z,98721.53
2022-12-23T23:49:05.220Z,98726.41
2022-12-23T23:51:33.192Z,98729.66
2022-12-23T23:54:01.178Z,98720.66
2022-12-23T23:56:37.587Z,98727.63
2022-12-23T23:59:06.848Z,98719.69
